sensor_id;sensor_type;location;lat;lon;timestamp;P1;durP1;ratioP1;P2;durP2;ratioP2
55537;SDS011;41383;51.418;7.286;2023-04-25T00:01:02;12.87;;;3.77;;
55537;SDS011;41383;51.418;7.286;2023-04-25T00:03:29;12.77;;;4.03;;
55537;SDS011;41383;51.418;7.286;2023-04-25T00:05:55;15.95;;;4.82;;
55537;SDS011;41383;51.418;7.286;2023-04-25T00:08:21;13.07;;;3.70;;
55537;SDS011;41383;51.418;7.286;2023-04-25T00:10:47;12.95;;;5.30;;
55537;SDS011;41383;51.418;7.286;2023-04-25T00:13:13;10.32;;;4.90;;
55537;SDS011;41383;51.418;7.286;2023-04-25T00:15:39;10.80;;;4.88;;
55537;SDS011;41383;51.418;7.286;2023-04-25T00:18:06;16.90;;;5.25;;
55537;SDS011;41383;51.418;7.286;2023-04-25T00:20:31;13.07;;;4.38;;
55537;SDS011;41383;51.418;7.286;2023-04-25T00:22:57;9.87;;;3.63;;
55537;SDS011;41383;51.418;7.286;2023-04-25T00:25:22;11.40;;;3.43;;
55537;SDS011;41383;51.418;7.286;2023-04-25T00:27:47;15.73;;;5.03;;
55537;SDS011;41383;51.418;7.286;2023-04-25T00:30:12;8.40;;;4.10;;
55537;SDS011;41383;51.418;7.286;2023-04-25T00:32:38;9.65;;;4.05;;
55537;SDS011;41383;51.418;7.286;2023-04-25T00:35:04;14.52;;;4.55;;
55537;SDS011;41383;51.418;7.286;2023-04-25T00:37:29;13.20;;;4.25;;
55537;SDS011;41383;51.418;7.286;2023-04-25T00:39:55;17.30;;;5.85;;
55537;SDS011;41383;51.418;7.286;2023-04-25T00:42:22;11.85;;;4.03;;
55537;SDS011;41383;51.418;7.286;2023-04-25T00:44:47;16.52;;;5.25;;
55537;SDS011;41383;51.418;7.286;2023-04-25T00:47:13;12.63;;;5.97;;
55537;SDS011;41383;51.418;7.286;2023-04-25T00:49:40;14.73;;;5.22;;
55537;SDS011;41383;51.418;7.286;2023-04-25T00:52:05;16.63;;;4.97;;
55537;SDS011;41383;51.418;7.286;2023-04-25T00:54:30;15.35;;;5.05;;
55537;SDS011;41383;51.418;7.286;2023-04-25T00:56:56;13.30;;;4.97;;
55537;SDS011;41383;51.418;7.286;2023-04-25T00:59:21;14.40;;;5.47;;
55537;SDS011;41383;51.418;7.286;2023-04-25T01:01:47;10.68;;;4.55;;
55537;SDS011;41383;51.418;7.286;2023-04-25T01:04:12;14.50;;;5.75;;
55537;SDS011;41383;51.418;7.286;2023-04-25T01:06:38;13.77;;;4.75;;
55537;SDS011;41383;51.418;7.286;2023-04-25T01:09:03;13.23;;;4.47;;
55537;SDS011;41383;51.418;7.286;2023-04-25T01:11:30;12.23;;;5.90;;
55537;SDS011;41383;51.418;7.286;2023-04-25T01:13:55;17.15;;;4.75;;
55537;SDS011;41383;51.418;7.286;2023-04-25T01:16:20;17.03;;;4.03;;
55537;SDS011;41383;51.418;7.286;2023-04-25T01:18:48;13.02;;;3.72;;
55537;SDS011;41383;51.418;7.286;2023-04-25T01:21:15;18.48;;;5.10;;
55537;SDS011;41383;51.418;7.286;2023-04-25T01:23:40;10.23;;;4.70;;
55537;SDS011;41383;51.418;7.286;2023-04-25T01:26:06;18.60;;;5.25;;
55537;SDS011;41383;51.418;7.286;2023-04-25T01:28:34;15.48;;;4.88;;
55537;SDS011;41383;51.418;7.286;2023-04-25T01:31:00;13.10;;;4.38;;
55537;SDS011;41383;51.418;7.286;2023-04-25T01:33:26;12.38;;;4.90;;
55537;SDS011;41383;51.418;7.286;2023-04-25T01:35:51;13.93;;;5.38;;
55537;SDS011;41383;51.418;7.286;2023-04-25T01:38:16;10.80;;;6.07;;
55537;SDS011;41383;51.418;7.286;2023-04-25T01:40:42;14.50;;;7.47;;
55537;SDS011;41383;51.418;7.286;2023-04-25T01:43:10;15.77;;;6.18;;
55537;SDS011;41383;51.418;7.286;2023-04-25T01:45:38;15.07;;;4.13;;
55537;SDS011;41383;51.418;7.286;2023-04-25T01:48:10;10.65;;;4.97;;
55537;SDS011;41383;51.418;7.286;2023-04-25T01:50:37;10.20;;;4.38;;
55537;SDS011;41383;51.418;7.286;2023-04-25T01:53:04;14.43;;;4.28;;
55537;SDS011;41383;51.418;7.286;2023-04-25T01:55:29;13.88;;;6.20;;
55537;SDS011;41383;51.418;7.286;2023-04-25T01:57:55;12.10;;;4.25;;
55537;SDS011;41383;51.418;7.286;2023-04-25T02:00:20;15.57;;;5.53;;
55537;SDS011;41383;51.418;7.286;2023-04-25T02:02:46;13.52;;;4.45;;
55537;SDS011;41383;51.418;7.286;2023-04-25T02:05:11;15.98;;;6.30;;
55537;SDS011;41383;51.418;7.286;2023-04-25T02:07:36;10.48;;;5.32;;
55537;SDS011;41383;51.418;7.286;2023-04-25T02:10:02;16.70;;;6.18;;
55537;SDS011;41383;51.418;7.286;2023-04-25T02:12:28;14.75;;;5.25;;
55537;SDS011;41383;51.418;7.286;2023-04-25T02:14:53;20.85;;;8.20;;
55537;SDS011;41383;51.418;7.286;2023-04-25T02:17:19;12.30;;;5.70;;
55537;SDS011;41383;51.418;7.286;2023-04-25T02:19:46;16.27;;;5.63;;
55537;SDS011;41383;51.418;7.286;2023-04-25T02:22:11;15.32;;;7.38;;
55537;SDS011;41383;51.418;7.286;2023-04-25T02:24:36;11.25;;;6.10;;
55537;SDS011;41383;51.418;7.286;2023-04-25T02:27:02;11.23;;;6.20;;
55537;SDS011;41383;51.418;7.286;2023-04-25T02:29:27;13.35;;;5.15;;
55537;SDS011;41383;51.418;7.286;2023-04-25T02:31:53;16.38;;;6.57;;
55537;SDS011;41383;51.418;7.286;2023-04-25T02:34:19;12.18;;;5.05;;
55537;SDS011;41383;51.418;7.286;2023-04-25T02:36:44;16.52;;;6.43;;
55537;SDS011;41383;51.418;7.286;2023-04-25T02:39:10;10.67;;;4.80;;
55537;SDS011;41383;51.418;7.286;2023-04-25T02:41:35;20.80;;;8.88;;
55537;SDS011;41383;51.418;7.286;2023-04-25T02:44:00;13.90;;;5.90;;
55537;SDS011;41383;51.418;7.286;2023-04-25T02:46:26;11.03;;;5.23;;
55537;SDS011;41383;51.418;7.286;2023-04-25T02:48:51;12.60;;;4.70;;
55537;SDS011;41383;51.418;7.286;2023-04-25T02:51:16;14.63;;;6.37;;
55537;SDS011;41383;51.418;7.286;2023-04-25T02:53:42;16.10;;;6.13;;
55537;SDS011;41383;51.418;7.286;2023-04-25T02:56:07;23.73;;;8.60;;
55537;SDS011;41383;51.418;7.286;2023-04-25T02:58:32;15.27;;;6.18;;
55537;SDS011;41383;51.418;7.286;2023-04-25T03:00:57;13.00;;;6.45;;
55537;SDS011;41383;51.418;7.286;2023-04-25T03:03:23;16.93;;;5.77;;
55537;SDS011;41383;51.418;7.286;2023-04-25T03:05:48;16.10;;;6.63;;
55537;SDS011;41383;51.418;7.286;2023-04-25T03:08:15;15.38;;;8.15;;
55537;SDS011;41383;51.418;7.286;2023-04-25T03:10:41;13.52;;;5.30;;
55537;SDS011;41383;51.418;7.286;2023-04-25T03:13:06;10.10;;;5.10;;
55537;SDS011;41383;51.418;7.286;2023-04-25T03:15:31;14.70;;;6.00;;
55537;SDS011;41383;51.418;7.286;2023-04-25T03:17:57;14.80;;;5.67;;
55537;SDS011;41383;51.418;7.286;2023-04-25T03:20:22;14.73;;;6.60;;
55537;SDS011;41383;51.418;7.286;2023-04-25T03:22:47;14.10;;;5.53;;
55537;SDS011;41383;51.418;7.286;2023-04-25T03:25:12;13.68;;;5.15;;
55537;SDS011;41383;51.418;7.286;2023-04-25T03:27:38;22.55;;;4.88;;
55537;SDS011;41383;51.418;7.286;2023-04-25T03:30:03;11.70;;;4.70;;
55537;SDS011;41383;51.418;7.286;2023-04-25T03:32:29;18.80;;;6.47;;
55537;SDS011;41383;51.418;7.286;2023-04-25T03:34:54;14.85;;;4.88;;
55537;SDS011;41383;51.418;7.286;2023-04-25T03:37:20;18.35;;;7.15;;
55537;SDS011;41383;51.418;7.286;2023-04-25T03:39:45;12.85;;;6.43;;
55537;SDS011;41383;51.418;7.286;2023-04-25T03:42:10;14.50;;;6.13;;
55537;SDS011;41383;51.418;7.286;2023-04-25T03:44:36;19.30;;;6.60;;
55537;SDS011;41383;51.418;7.286;2023-04-25T03:47:01;13.93;;;5.53;;
55537;SDS011;41383;51.418;7.286;2023-04-25T03:49:26;16.65;;;6.18;;
55537;SDS011;41383;51.418;7.286;2023-04-25T03:51:51;12.15;;;5.38;;
55537;SDS011;41383;51.418;7.286;2023-04-25T03:54:17;15.10;;;6.13;;
55537;SDS011;41383;51.418;7.286;2023-04-25T03:56:42;17.07;;;6.70;;
55537;SDS011;41383;51.418;7.286;2023-04-25T03:59:07;12.60;;;6.27;;
55537;SDS011;41383;51.418;7.286;2023-04-25T04:01:32;17.92;;;7.18;;
55537;SDS011;41383;51.418;7.286;2023-04-25T04:03:58;14.93;;;7.10;;
55537;SDS011;41383;51.418;7.286;2023-04-25T04:06:23;10.80;;;5.65;;
55537;SDS011;41383;51.418;7.286;2023-04-25T04:08:48;17.17;;;6.20;;
55537;SDS011;41383;51.418;7.286;2023-04-25T04:11:13;14.17;;;6.60;;
55537;SDS011;41383;51.418;7.286;2023-04-25T04:13:39;14.53;;;6.17;;
55537;SDS011;41383;51.418;7.286;2023-04-25T04:16:04;18.92;;;6.57;;
55537;SDS011;41383;51.418;7.286;2023-04-25T04:18:30;15.75;;;7.00;;
55537;SDS011;41383;51.418;7.286;2023-04-25T04:20:55;13.90;;;5.97;;
55537;SDS011;41383;51.418;7.286;2023-04-25T04:23:22;12.07;;;6.13;;
55537;SDS011;41383;51.418;7.286;2023-04-25T04:25:48;16.73;;;5.83;;
55537;SDS011;41383;51.418;7.286;2023-04-25T04:28:13;11.27;;;4.77;;
55537;SDS011;41383;51.418;7.286;2023-04-25T04:30:38;13.77;;;4.17;;
55537;SDS011;41383;51.418;7.286;2023-04-25T04:33:04;12.07;;;3.85;;
55537;SDS011;41383;51.418;7.286;2023-04-25T04:35:29;11.60;;;3.78;;
55537;SDS011;41383;51.418;7.286;2023-04-25T04:37:55;14.82;;;4.18;;
55537;SDS011;41383;51.418;7.286;2023-04-25T04:40:21;10.35;;;2.80;;
55537;SDS011;41383;51.418;7.286;2023-04-25T04:42:46;8.70;;;2.83;;
55537;SDS011;41383;51.418;7.286;2023-04-25T04:45:12;4.90;;;1.88;;
55537;SDS011;41383;51.418;7.286;2023-04-25T04:47:38;8.50;;;2.58;;
55537;SDS011;41383;51.418;7.286;2023-04-25T04:50:05;6.53;;;2.47;;
55537;SDS011;41383;51.418;7.286;2023-04-25T04:52:32;12.43;;;2.83;;
55537;SDS011;41383;51.418;7.286;2023-04-25T04:54:57;9.77;;;2.70;;
55537;SDS011;41383;51.418;7.286;2023-04-25T04:57:22;14.88;;;3.45;;
55537;SDS011;41383;51.418;7.286;2023-04-25T04:59:47;10.50;;;3.20;;
55537;SDS011;41383;51.418;7.286;2023-04-25T05:02:13;8.10;;;2.75;;
55537;SDS011;41383;51.418;7.286;2023-04-25T05:04:38;17.73;;;4.38;;
55537;SDS011;41383;51.418;7.286;2023-04-25T05:07:04;11.35;;;2.55;;
55537;SDS011;41383;51.418;7.286;2023-04-25T05:09:29;8.17;;;3.27;;
55537;SDS011;41383;51.418;7.286;2023-04-25T05:11:55;9.90;;;3.20;;
55537;SDS011;41383;51.418;7.286;2023-04-25T05:14:20;8.70;;;3.65;;
55537;SDS011;41383;51.418;7.286;2023-04-25T05:16:46;9.18;;;3.00;;
55537;SDS011;41383;51.418;7.286;2023-04-25T05:19:12;9.40;;;3.00;;
55537;SDS011;41383;51.418;7.286;2023-04-25T05:21:37;9.93;;;3.50;;
55537;SDS011;41383;51.418;7.286;2023-04-25T05:24:03;21.90;;;6.10;;
55537;SDS011;41383;51.418;7.286;2023-04-25T05:26:28;10.13;;;3.90;;
55537;SDS011;41383;51.418;7.286;2023-04-25T05:28:56;10.63;;;2.72;;
55537;SDS011;41383;51.418;7.286;2023-04-25T05:31:22;11.77;;;3.92;;
55537;SDS011;41383;51.418;7.286;2023-04-25T05:33:47;16.90;;;5.33;;
55537;SDS011;41383;51.418;7.286;2023-04-25T05:36:12;9.27;;;2.43;;
55537;SDS011;41383;51.418;7.286;2023-04-25T05:38:37;16.37;;;4.50;;
55537;SDS011;41383;51.418;7.286;2023-04-25T05:41:03;16.93;;;4.03;;
55537;SDS011;41383;51.418;7.286;2023-04-25T05:43:28;9.80;;;3.50;;
55537;SDS011;41383;51.418;7.286;2023-04-25T05:45:53;10.53;;;3.63;;
55537;SDS011;41383;51.418;7.286;2023-04-25T05:48:18;12.27;;;4.28;;
55537;SDS011;41383;51.418;7.286;2023-04-25T05:50:44;15.27;;;3.90;;
55537;SDS011;41383;51.418;7.286;2023-04-25T05:53:09;13.05;;;5.32;;
55537;SDS011;41383;51.418;7.286;2023-04-25T05:55:34;11.37;;;4.20;;
55537;SDS011;41383;51.418;7.286;2023-04-25T05:57:59;16.40;;;4.55;;
55537;SDS011;41383;51.418;7.286;2023-04-25T06:00:25;13.68;;;4.45;;
55537;SDS011;41383;51.418;7.286;2023-04-25T06:02:50;11.75;;;5.22;;
55537;SDS011;41383;51.418;7.286;2023-04-25T06:05:16;15.27;;;4.28;;
55537;SDS011;41383;51.418;7.286;2023-04-25T06:07:41;19.60;;;6.22;;
55537;SDS011;41383;51.418;7.286;2023-04-25T06:10:06;16.73;;;4.47;;
55537;SDS011;41383;51.418;7.286;2023-04-25T06:12:32;12.57;;;4.03;;
55537;SDS011;41383;51.418;7.286;2023-04-25T06:14:58;24.48;;;6.28;;
55537;SDS011;41383;51.418;7.286;2023-04-25T06:17:24;12.68;;;4.78;;
55537;SDS011;41383;51.418;7.286;2023-04-25T06:19:49;12.23;;;5.60;;
55537;SDS011;41383;51.418;7.286;2023-04-25T06:22:14;15.00;;;3.93;;
55537;SDS011;41383;51.418;7.286;2023-04-25T06:24:39;11.73;;;4.77;;
55537;SDS011;41383;51.418;7.286;2023-04-25T06:27:05;14.33;;;5.60;;
55537;SDS011;41383;51.418;7.286;2023-04-25T06:29:30;16.17;;;5.30;;
55537;SDS011;41383;51.418;7.286;2023-04-25T06:31:55;16.95;;;5.75;;
55537;SDS011;41383;51.418;7.286;2023-04-25T06:34:22;16.90;;;6.10;;
55537;SDS011;41383;51.418;7.286;2023-04-25T06:36:47;23.83;;;5.53;;
55537;SDS011;41383;51.418;7.286;2023-04-25T06:39:12;14.27;;;6.20;;
55537;SDS011;41383;51.418;7.286;2023-04-25T06:41:37;17.97;;;5.43;;
55537;SDS011;41383;51.418;7.286;2023-04-25T06:44:02;17.15;;;6.00;;
55537;SDS011;41383;51.418;7.286;2023-04-25T06:46:28;22.83;;;6.73;;
55537;SDS011;41383;51.418;7.286;2023-04-25T06:48:53;14.25;;;5.60;;
55537;SDS011;41383;51.418;7.286;2023-04-25T06:51:18;19.05;;;6.32;;
55537;SDS011;41383;51.418;7.286;2023-04-25T06:53:44;15.40;;;5.80;;
55537;SDS011;41383;51.418;7.286;2023-04-25T06:56:09;14.40;;;7.17;;
55537;SDS011;41383;51.418;7.286;2023-04-25T06:58:35;13.52;;;5.72;;
55537;SDS011;41383;51.418;7.286;2023-04-25T07:01:00;24.93;;;8.27;;
55537;SDS011;41383;51.418;7.286;2023-04-25T07:03:25;16.10;;;7.80;;
55537;SDS011;41383;51.418;7.286;2023-04-25T07:05:50;18.25;;;6.82;;
55537;SDS011;41383;51.418;7.286;2023-04-25T07:08:16;10.03;;;4.83;;
55537;SDS011;41383;51.418;7.286;2023-04-25T07:10:41;14.00;;;6.35;;
55537;SDS011;41383;51.418;7.286;2023-04-25T07:13:07;13.00;;;6.82;;
55537;SDS011;41383;51.418;7.286;2023-04-25T07:15:32;17.17;;;6.73;;
55537;SDS011;41383;51.418;7.286;2023-04-25T07:17:58;24.00;;;6.78;;
55537;SDS011;41383;51.418;7.286;2023-04-25T07:20:23;20.60;;;5.93;;
55537;SDS011;41383;51.418;7.286;2023-04-25T07:22:48;13.13;;;5.80;;
55537;SDS011;41383;51.418;7.286;2023-04-25T07:25:15;16.25;;;6.57;;
55537;SDS011;41383;51.418;7.286;2023-04-25T07:27:40;20.80;;;6.75;;
55537;SDS011;41383;51.418;7.286;2023-04-25T07:30:06;17.60;;;5.93;;
55537;SDS011;41383;51.418;7.286;2023-04-25T07:32:31;17.33;;;5.25;;
55537;SDS011;41383;51.418;7.286;2023-04-25T07:34:57;16.60;;;6.40;;
55537;SDS011;41383;51.418;7.286;2023-04-25T07:37:22;13.13;;;5.00;;
55537;SDS011;41383;51.418;7.286;2023-04-25T07:39:47;15.40;;;6.43;;
55537;SDS011;41383;51.418;7.286;2023-04-25T07:42:13;10.80;;;5.13;;
55537;SDS011;41383;51.418;7.286;2023-04-25T07:44:38;22.80;;;7.07;;
55537;SDS011;41383;51.418;7.286;2023-04-25T07:47:05;19.00;;;4.85;;
55537;SDS011;41383;51.418;7.286;2023-04-25T07:49:34;12.80;;;3.60;;
55537;SDS011;41383;51.418;7.286;2023-04-25T07:52:01;13.82;;;3.97;;
55537;SDS011;41383;51.418;7.286;2023-04-25T07:54:28;11.63;;;4.85;;
55537;SDS011;41383;51.418;7.286;2023-04-25T07:56:53;10.68;;;4.35;;
55537;SDS011;41383;51.418;7.286;2023-04-25T07:59:18;18.20;;;4.07;;
55537;SDS011;41383;51.418;7.286;2023-04-25T08:01:44;8.38;;;3.53;;
55537;SDS011;41383;51.418;7.286;2023-04-25T08:04:09;8.77;;;3.60;;
55537;SDS011;41383;51.418;7.286;2023-04-25T08:06:35;9.77;;;3.83;;
55537;SDS011;41383;51.418;7.286;2023-04-25T08:09:00;17.42;;;3.90;;
55537;SDS011;41383;51.418;7.286;2023-04-25T08:11:26;10.15;;;3.22;;
55537;SDS011;41383;51.418;7.286;2023-04-25T08:13:51;13.10;;;5.17;;
55537;SDS011;41383;51.418;7.286;2023-04-25T08:16:17;20.17;;;4.67;;
55537;SDS011;41383;51.418;7.286;2023-04-25T08:18:42;18.65;;;4.25;;
55537;SDS011;41383;51.418;7.286;2023-04-25T08:21:07;9.10;;;3.23;;
55537;SDS011;41383;51.418;7.286;2023-04-25T08:23:33;12.57;;;3.75;;
55537;SDS011;41383;51.418;7.286;2023-04-25T08:25:59;6.97;;;2.97;;
55537;SDS011;41383;51.418;7.286;2023-04-25T08:28:24;8.65;;;2.92;;
55537;SDS011;41383;51.418;7.286;2023-04-25T08:30:50;9.07;;;2.97;;
55537;SDS011;41383;51.418;7.286;2023-04-25T08:33:15;7.80;;;3.25;;
55537;SDS011;41383;51.418;7.286;2023-04-25T08:35:40;10.40;;;3.47;;
55537;SDS011;41383;51.418;7.286;2023-04-25T08:38:05;15.93;;;2.65;;
55537;SDS011;41383;51.418;7.286;2023-04-25T08:40:31;9.75;;;3.25;;
55537;SDS011;41383;51.418;7.286;2023-04-25T08:43:02;9.23;;;2.83;;
55537;SDS011;41383;51.418;7.286;2023-04-25T08:45:28;8.52;;;2.38;;
55537;SDS011;41383;51.418;7.286;2023-04-25T08:47:57;5.93;;;2.22;;
55537;SDS011;41383;51.418;7.286;2023-04-25T08:50:23;17.95;;;5.00;;
55537;SDS011;41383;51.418;7.286;2023-04-25T08:52:51;13.32;;;3.50;;
55537;SDS011;41383;51.418;7.286;2023-04-25T08:55:18;6.97;;;2.85;;
55537;SDS011;41383;51.418;7.286;2023-04-25T08:57:46;8.88;;;2.17;;
55537;SDS011;41383;51.418;7.286;2023-04-25T09:00:12;10.65;;;2.13;;
55537;SDS011;41383;51.418;7.286;2023-04-25T09:02:42;7.32;;;2.58;;
55537;SDS011;41383;51.418;7.286;2023-04-25T09:05:08;7.82;;;2.90;;
55537;SDS011;41383;51.418;7.286;2023-04-25T09:07:34;11.23;;;3.17;;
55537;SDS011;41383;51.418;7.286;2023-04-25T09:10:00;12.70;;;3.55;;
55537;SDS011;41383;51.418;7.286;2023-04-25T09:12:28;14.00;;;3.28;;
55537;SDS011;41383;51.418;7.286;2023-04-25T09:15:04;8.38;;;3.20;;
55537;SDS011;41383;51.418;7.286;2023-04-25T09:17:31;13.65;;;3.97;;
55537;SDS011;41383;51.418;7.286;2023-04-25T09:20:05;7.88;;;2.38;;
55537;SDS011;41383;51.418;7.286;2023-04-25T09:22:37;8.77;;;3.00;;
55537;SDS011;41383;51.418;7.286;2023-04-25T09:25:09;12.40;;;2.22;;
55537;SDS011;41383;51.418;7.286;2023-04-25T09:27:36;6.63;;;2.45;;
55537;SDS011;41383;51.418;7.286;2023-04-25T09:30:01;11.88;;;2.70;;
55537;SDS011;41383;51.418;7.286;2023-04-25T09:32:27;8.80;;;2.65;;
55537;SDS011;41383;51.418;7.286;2023-04-25T09:34:54;11.25;;;2.33;;
55537;SDS011;41383;51.418;7.286;2023-04-25T09:37:21;5.80;;;1.80;;
55537;SDS011;41383;51.418;7.286;2023-04-25T09:39:52;7.85;;;2.65;;
55537;SDS011;41383;51.418;7.286;2023-04-25T09:42:21;7.40;;;2.50;;
55537;SDS011;41383;51.418;7.286;2023-04-25T09:44:49;7.63;;;2.25;;
55537;SDS011;41383;51.418;7.286;2023-04-25T09:47:17;4.50;;;1.63;;
55537;SDS011;41383;51.418;7.286;2023-04-25T09:49:43;4.65;;;1.88;;
55537;SDS011;41383;51.418;7.286;2023-04-25T09:52:10;6.70;;;1.73;;
55537;SDS011;41383;51.418;7.286;2023-04-25T09:54:39;16.27;;;2.03;;
55537;SDS011;41383;51.418;7.286;2023-04-25T09:57:09;9.65;;;2.08;;
55537;SDS011;41383;51.418;7.286;2023-04-25T09:59:36;6.00;;;1.73;;
55537;SDS011;41383;51.418;7.286;2023-04-25T10:02:03;12.15;;;2.35;;
55537;SDS011;41383;51.418;7.286;2023-04-25T10:04:31;7.75;;;2.08;;
55537;SDS011;41383;51.418;7.286;2023-04-25T10:06:59;6.10;;;1.80;;
55537;SDS011;41383;51.418;7.286;2023-04-25T10:09:26;9.82;;;1.73;;
55537;SDS011;41383;51.418;7.286;2023-04-25T10:11:58;16.25;;;2.70;;
55537;SDS011;41383;51.418;7.286;2023-04-25T10:14:24;11.27;;;1.60;;
55537;SDS011;41383;51.418;7.286;2023-04-25T10:16:51;7.05;;;1.73;;
55537;SDS011;41383;51.418;7.286;2023-04-25T10:19:18;4.65;;;1.70;;
55537;SDS011;41383;51.418;7.286;2023-04-25T10:21:52;11.38;;;2.10;;
55537;SDS011;41383;51.418;7.286;2023-04-25T10:24:20;10.18;;;2.08;;
55537;SDS011;41383;51.418;7.286;2023-04-25T10:26:46;7.45;;;2.17;;
55537;SDS011;41383;51.418;7.286;2023-04-25T10:29:14;7.28;;;2.15;;
55537;SDS011;41383;51.418;7.286;2023-04-25T10:31:46;4.68;;;1.50;;
55537;SDS011;41383;51.418;7.286;2023-04-25T10:34:15;5.15;;;1.70;;
55537;SDS011;41383;51.418;7.286;2023-04-25T10:36:41;11.98;;;1.77;;
55537;SDS011;41383;51.418;7.286;2023-04-25T10:39:07;3.80;;;1.05;;
55537;SDS011;41383;51.418;7.286;2023-04-25T10:41:45;4.57;;;1.60;;
55537;SDS011;41383;51.418;7.286;2023-04-25T10:44:12;3.38;;;1.20;;
55537;SDS011;41383;51.418;7.286;2023-04-25T10:46:38;5.63;;;1.35;;
55537;SDS011;41383;51.418;7.286;2023-04-25T10:49:04;6.30;;;1.53;;
55537;SDS011;41383;51.418;7.286;2023-04-25T10:51:30;4.22;;;1.15;;
55537;SDS011;41383;51.418;7.286;2023-04-25T10:54:00;6.53;;;1.20;;
55537;SDS011;41383;51.418;7.286;2023-04-25T10:56:38;8.68;;;1.45;;
55537;SDS011;41383;51.418;7.286;2023-04-25T10:59:18;6.30;;;1.02;;
55537;SDS011;41383;51.418;7.286;2023-04-25T11:09:36;7.38;;;1.50;;
55537;SDS011;41383;51.418;7.286;2023-04-25T11:12:04;4.88;;;1.27;;
55537;SDS011;41383;51.418;7.286;2023-04-25T11:14:31;5.80;;;1.80;;
55537;SDS011;41383;51.418;7.286;2023-04-25T11:16:57;3.33;;;1.45;;
55537;SDS011;41383;51.418;7.286;2023-04-25T11:19:24;9.07;;;1.90;;
55537;SDS011;41383;51.418;7.286;2023-04-25T11:21:50;12.15;;;1.77;;
55537;SDS011;41383;51.418;7.286;2023-04-25T11:24:16;9.88;;;2.47;;
55537;SDS011;41383;51.418;7.286;2023-04-25T11:26:42;8.88;;;2.00;;
55537;SDS011;41383;51.418;7.286;2023-04-25T11:29:08;7.70;;;1.65;;
55537;SDS011;41383;51.418;7.286;2023-04-25T11:31:34;9.32;;;2.95;;
55537;SDS011;41383;51.418;7.286;2023-04-25T11:33:59;9.80;;;1.60;;
55537;SDS011;41383;51.418;7.286;2023-04-25T11:36:25;9.80;;;1.73;;
55537;SDS011;41383;51.418;7.286;2023-04-25T11:38:51;7.38;;;1.30;;
55537;SDS011;41383;51.418;7.286;2023-04-25T11:41:18;7.15;;;1.85;;
55537;SDS011;41383;51.418;7.286;2023-04-25T11:43:44;3.88;;;1.55;;
55537;SDS011;41383;51.418;7.286;2023-04-25T11:46:09;5.07;;;1.88;;
55537;SDS011;41383;51.418;7.286;2023-04-25T11:48:38;8.02;;;2.33;;
55537;SDS011;41383;51.418;7.286;2023-04-25T11:51:04;6.28;;;2.05;;
55537;SDS011;41383;51.418;7.286;2023-04-25T11:53:30;10.73;;;3.17;;
55537;SDS011;41383;51.418;7.286;2023-04-25T11:55:55;5.95;;;2.17;;
55537;SDS011;41383;51.418;7.286;2023-04-25T11:58:21;5.82;;;1.67;;
55537;SDS011;41383;51.418;7.286;2023-04-25T12:00:46;6.38;;;2.80;;
55537;SDS011;41383;51.418;7.286;2023-04-25T12:03:11;4.97;;;1.80;;
55537;SDS011;41383;51.418;7.286;2023-04-25T12:05:37;7.13;;;1.50;;
55537;SDS011;41383;51.418;7.286;2023-04-25T12:08:12;8.80;;;2.50;;
55537;SDS011;41383;51.418;7.286;2023-04-25T12:10:38;5.20;;;2.38;;
55537;SDS011;41383;51.418;7.286;2023-04-25T12:13:24;6.70;;;2.72;;
55537;SDS011;41383;51.418;7.286;2023-04-25T12:15:51;7.80;;;1.75;;
55537;SDS011;41383;51.418;7.286;2023-04-25T12:18:19;4.22;;;1.50;;
55537;SDS011;41383;51.418;7.286;2023-04-25T12:20:46;9.13;;;1.83;;
55537;SDS011;41383;51.418;7.286;2023-04-25T12:23:11;6.30;;;0.90;;
55537;SDS011;41383;51.418;7.286;2023-04-25T12:25:38;5.32;;;1.27;;
55537;SDS011;41383;51.418;7.286;2023-04-25T12:30:55;3.70;;;1.45;;
55537;SDS011;41383;51.418;7.286;2023-04-25T12:33:26;2.97;;;1.15;;
55537;SDS011;41383;51.418;7.286;2023-04-25T12:35:55;4.30;;;1.20;;
55537;SDS011;41383;51.418;7.286;2023-04-25T12:38:23;7.35;;;1.17;;
55537;SDS011;41383;51.418;7.286;2023-04-25T12:40:49;3.13;;;0.80;;
55537;SDS011;41383;51.418;7.286;2023-04-25T12:43:15;4.03;;;1.45;;
55537;SDS011;41383;51.418;7.286;2023-04-25T12:45:40;12.93;;;6.10;;
55537;SDS011;41383;51.418;7.286;2023-04-25T12:48:05;9.07;;;1.57;;
55537;SDS011;41383;51.418;7.286;2023-04-25T12:50:30;10.93;;;5.00;;
55537;SDS011;41383;51.418;7.286;2023-04-25T12:52:56;7.07;;;2.13;;
55537;SDS011;41383;51.418;7.286;2023-04-25T12:55:21;5.57;;;1.43;;
55537;SDS011;41383;51.418;7.286;2023-04-25T12:57:47;3.93;;;1.23;;
55537;SDS011;41383;51.418;7.286;2023-04-25T13:00:12;8.70;;;2.03;;
55537;SDS011;41383;51.418;7.286;2023-04-25T13:02:39;3.63;;;0.98;;
55537;SDS011;41383;51.418;7.286;2023-04-25T13:05:05;3.83;;;1.27;;
55537;SDS011;41383;51.418;7.286;2023-04-25T13:07:31;6.90;;;1.63;;
55537;SDS011;41383;51.418;7.286;2023-04-25T13:09:56;3.88;;;1.60;;
55537;SDS011;41383;51.418;7.286;2023-04-25T13:12:21;11.97;;;1.27;;
55537;SDS011;41383;51.418;7.286;2023-04-25T13:14:47;6.38;;;1.58;;
55537;SDS011;41383;51.418;7.286;2023-04-25T13:17:12;3.77;;;1.30;;
55537;SDS011;41383;51.418;7.286;2023-04-25T13:19:37;3.10;;;0.88;;
55537;SDS011;41383;51.418;7.286;2023-04-25T13:22:03;4.13;;;1.48;;
55537;SDS011;41383;51.418;7.286;2023-04-25T13:24:29;3.33;;;1.38;;
55537;SDS011;41383;51.418;7.286;2023-04-25T13:26:54;5.18;;;1.75;;
55537;SDS011;41383;51.418;7.286;2023-04-25T13:29:20;7.83;;;1.40;;
55537;SDS011;41383;51.418;7.286;2023-04-25T13:31:45;4.27;;;1.33;;
55537;SDS011;41383;51.418;7.286;2023-04-25T13:34:10;1.73;;;0.97;;
55537;SDS011;41383;51.418;7.286;2023-04-25T13:36:37;3.33;;;1.95;;
55537;SDS011;41383;51.418;7.286;2023-04-25T13:39:02;3.53;;;1.25;;
55537;SDS011;41383;51.418;7.286;2023-04-25T13:41:29;4.82;;;2.33;;
55537;SDS011;41383;51.418;7.286;2023-04-25T13:43:55;5.47;;;1.40;;
55537;SDS011;41383;51.418;7.286;2023-04-25T13:46:20;2.45;;;1.10;;
55537;SDS011;41383;51.418;7.286;2023-04-25T13:48:45;5.55;;;1.13;;
55537;SDS011;41383;51.418;7.286;2023-04-25T13:51:13;3.92;;;1.20;;
55537;SDS011;41383;51.418;7.286;2023-04-25T13:53:40;5.68;;;1.60;;
55537;SDS011;41383;51.418;7.286;2023-04-25T13:56:05;11.02;;;1.85;;
55537;SDS011;41383;51.418;7.286;2023-04-25T13:58:31;2.40;;;1.27;;
55537;SDS011;41383;51.418;7.286;2023-04-25T14:00:57;2.45;;;1.10;;
55537;SDS011;41383;51.418;7.286;2023-04-25T14:03:22;6.07;;;0.93;;
55537;SDS011;41383;51.418;7.286;2023-04-25T14:05:47;5.30;;;1.97;;
55537;SDS011;41383;51.418;7.286;2023-04-25T14:08:13;3.80;;;0.80;;
55537;SDS011;41383;51.418;7.286;2023-04-25T14:10:38;10.23;;;1.90;;
55537;SDS011;41383;51.418;7.286;2023-04-25T14:13:04;3.08;;;0.90;;
55537;SDS011;41383;51.418;7.286;2023-04-25T14:15:31;8.55;;;1.58;;
55537;SDS011;41383;51.418;7.286;2023-04-25T14:17:56;6.53;;;2.72;;
55537;SDS011;41383;51.418;7.286;2023-04-25T14:20:22;3.90;;;1.15;;
55537;SDS011;41383;51.418;7.286;2023-04-25T14:22:48;3.95;;;1.40;;
55537;SDS011;41383;51.418;7.286;2023-04-25T14:25:14;7.60;;;1.60;;
55537;SDS011;41383;51.418;7.286;2023-04-25T14:27:39;2.78;;;0.95;;
55537;SDS011;41383;51.418;7.286;2023-04-25T14:30:05;12.30;;;3.00;;
55537;SDS011;41383;51.418;7.286;2023-04-25T14:32:31;4.82;;;1.15;;
55537;SDS011;41383;51.418;7.286;2023-04-25T14:34:57;2.78;;;1.20;;
55537;SDS011;41383;51.418;7.286;2023-04-25T14:37:22;3.92;;;1.02;;
55537;SDS011;41383;51.418;7.286;2023-04-25T14:39:47;5.33;;;1.20;;
55537;SDS011;41383;51.418;7.286;2023-04-25T14:42:12;6.88;;;0.90;;
55537;SDS011;41383;51.418;7.286;2023-04-25T14:44:38;14.25;;;5.20;;